sensor_id;sensor_type;location;lat;lon;timestamp;pressure;altitude;pressure_sealevel;temperature;humidity
30744;BME280;17486;46.738;7.622;2023-01-26T00:00:54;95549.06;;;1.62;56.14
30744;BME280;17486;46.738;7.622;2023-01-26T00:03:20;95544.78;;;1.61;56.46
30744;BME280;17486;46.738;7.622;2023-01-26T00:05:45;95590.69;;;1.86;56.69
30744;BME280;17486;46.738;7.622;2023-01-26T00:08:11;95543.06;;;1.63;56.52
30744;BME280;17486;46.738;7.622;2023-01-26T00:10:38;95584.72;;;1.87;56.57
30744;BME280;17486;46.738;7.622;2023-01-26T00:13:05;95587.31;;;1.84;56.30
30744;BME280;17486;46.738;7.622;2023-01-26T00:15:32;95567.63;;;1.86;56.28
30744;BME280;17486;46.738;7.622;2023-01-26T00:17:58;95526.88;;;1.59;56.21
30744;BME280;17486;46.738;7.622;2023-01-26T00:20:24;95555.66;;;1.85;56.31
30744;BME280;17486;46.738;7.622;2023-01-26T00:22:49;95507.25;;;1.57;56.10
30744;BME280;17486;46.738;7.622;2023-01-26T00:25:15;95546.28;;;1.84;56.72
30744;BME280;17486;46.738;7.622;2023-01-26T00:27:40;95539.44;;;1.82;56.52
30744;BME280;17486;46.738;7.622;2023-01-26T00:30:06;95527.50;;;1.80;56.40
30744;BME280;17486;46.738;7.622;2023-01-26T00:32:34;95522.38;;;1.80;56.79
30744;BME280;17486;46.738;7.622;2023-01-26T00:35:00;95507.97;;;1.68;56.32
30744;BME280;17486;46.738;7.622;2023-01-26T00:37:25;95488.44;;;1.58;56.27
30744;BME280;17486;46.738;7.622;2023-01-26T00:39:50;95535.19;;;1.81;56.08
30744;BME280;17486;46.738;7.622;2023-01-26T00:42:16;95511.44;;;1.62;56.72
30744;BME280;17486;46.738;7.622;2023-01-26T00:44:42;95528.41;;;1.76;56.36
30744;BME280;17486;46.738;7.622;2023-01-26T00:47:09;95538.63;;;1.79;56.17
30744;BME280;17486;46.738;7.622;2023-01-26T00:49:36;95536.91;;;1.78;56.60
30744;BME280;17486;46.738;7.622;2023-01-26T00:52:01;95526.72;;;1.73;56.67
30744;BME280;17486;46.738;7.622;2023-01-26T00:54:27;95498.72;;;1.55;56.48
30744;BME280;17486;46.738;7.622;2023-01-26T00:56:53;95531.88;;;1.70;56.24
30744;BME280;17486;46.738;7.622;2023-01-26T00:59:19;95491.91;;;1.51;56.00
30744;BME280;17486;46.738;7.622;2023-01-26T01:01:46;95504.63;;;1.61;56.26
30744;BME280;17486;46.738;7.622;2023-01-26T01:04:11;95504.63;;;1.63;56.28
30744;BME280;17486;46.738;7.622;2023-01-26T01:06:37;95486.78;;;1.52;56.29
30744;BME280;17486;46.738;7.622;2023-01-26T01:09:02;95532.72;;;1.72;56.48
30744;BME280;17486;46.738;7.622;2023-01-26T01:11:28;95523.31;;;1.73;56.47
30744;BME280;17486;46.738;7.622;2023-01-26T01:13:53;95483.41;;;1.45;56.78
30744;BME280;17486;46.738;7.622;2023-01-26T01:16:19;95532.72;;;1.72;56.24
30744;BME280;17486;46.738;7.622;2023-01-26T01:18:44;95524.19;;;1.69;56.69
30744;BME280;17486;46.738;7.622;2023-01-26T01:21:12;95525.13;;;1.63;56.61
30744;BME280;17486;46.738;7.622;2023-01-26T01:23:38;95537.91;;;1.64;56.64
30744;BME280;17486;46.738;7.622;2023-01-26T01:26:04;95537.03;;;1.69;56.33
30744;BME280;17486;46.738;7.622;2023-01-26T01:28:30;95479.28;;;1.33;56.83
30744;BME280;17486;46.738;7.622;2023-01-26T01:30:56;95530.22;;;1.64;56.78
30744;BME280;17486;46.738;7.622;2023-01-26T01:33:22;95532.75;;;1.68;56.45
30744;BME280;17486;46.738;7.622;2023-01-26T01:35:58;95522.53;;;1.66;56.61
30744;BME280;17486;46.738;7.622;2023-01-26T01:38:24;95487.72;;;1.45;56.59
30744;BME280;17486;46.738;7.622;2023-01-26T01:40:51;95497.09;;;1.47;56.63
30744;BME280;17486;46.738;7.622;2023-01-26T01:43:17;95527.59;;;1.72;56.23
30744;BME280;17486;46.738;7.622;2023-01-26T01:45:51;95530.19;;;1.69;56.68
30744;BME280;17486;46.738;7.622;2023-01-26T01:48:52;95521.63;;;1.70;56.48
30744;BME280;17486;46.738;7.622;2023-01-26T01:53:55;95516.53;;;1.67;56.52
30744;BME280;17486;46.738;7.622;2023-01-26T01:56:23;95525.06;;;1.69;57.05
30744;BME280;17486;46.738;7.622;2023-01-26T01:58:53;95524.22;;;1.67;56.98
30744;BME280;17486;46.738;7.622;2023-01-26T02:01:19;95522.56;;;1.63;56.86
30744;BME280;17486;46.738;7.622;2023-01-26T02:03:46;95525.16;;;1.60;56.76
30744;BME280;17486;46.738;7.622;2023-01-26T02:06:20;95488.56;;;1.47;56.61
30744;BME280;17486;46.738;7.622;2023-01-26T02:08:50;95506.34;;;1.61;56.61
30744;BME280;17486;46.738;7.622;2023-01-26T02:11:20;95519.16;;;1.64;56.37
30744;BME280;17486;46.738;7.622;2023-01-26T02:13:47;95523.41;;;1.63;56.50
30744;BME280;17486;46.738;7.622;2023-01-26T02:16:14;95507.25;;;1.57;56.76
30744;BME280;17486;46.738;7.622;2023-01-26T02:18:40;95467.34;;;1.32;56.77
30744;BME280;17486;46.738;7.622;2023-01-26T02:21:08;95469.00;;;1.38;56.41
30744;BME280;17486;46.738;7.622;2023-01-26T02:26:31;95506.34;;;1.59;56.77
30744;BME280;17486;46.738;7.622;2023-01-26T02:28:58;95501.22;;;1.59;56.49
30744;BME280;17486;46.738;7.622;2023-01-26T02:31:24;95507.22;;;1.60;56.59
30744;BME280;17486;46.738;7.622;2023-01-26T02:33:50;95512.34;;;1.60;56.81
30744;BME280;17486;46.738;7.622;2023-01-26T02:36:25;95457.06;;;1.36;57.08
30744;BME280;17486;46.738;7.622;2023-01-26T02:39:24;95490.97;;;1.61;56.50
30744;BME280;17486;46.738;7.622;2023-01-26T02:41:54;95495.28;;;1.56;56.78
30744;BME280;17486;46.738;7.622;2023-01-26T02:44:40;95439.16;;;1.31;56.59
30744;BME280;17486;46.738;7.622;2023-01-26T02:47:13;95451.91;;;1.37;56.48
30744;BME280;17486;46.738;7.622;2023-01-26T02:49:39;95445.09;;;1.35;56.49
30744;BME280;17486;46.738;7.622;2023-01-26T02:52:20;95447.69;;;1.33;56.46
30744;BME280;17486;46.738;7.622;2023-01-26T02:54:46;95476.53;;;1.54;56.59
30744;BME280;17486;46.738;7.622;2023-01-26T02:57:30;95482.50;;;1.54;56.66
30744;BME280;17486;46.738;7.622;2023-01-26T02:59:56;95474.78;;;1.54;56.82
30744;BME280;17486;46.738;7.622;2023-01-26T03:02:22;95466.28;;;1.51;56.99
30744;BME280;17486;46.738;7.622;2023-01-26T03:04:47;95438.28;;;1.32;56.92
30744;BME280;17486;46.738;7.622;2023-01-26T03:07:13;95432.34;;;1.30;57.02
30744;BME280;17486;46.738;7.622;2023-01-26T03:09:38;95465.41;;;1.55;56.97
30744;BME280;17486;46.738;7.622;2023-01-26T03:12:04;95465.38;;;1.56;56.62
30744;BME280;17486;46.738;7.622;2023-01-26T03:14:29;95459.41;;;1.56;56.83
30744;BME280;17486;46.738;7.622;2023-01-26T03:16:54;95458.56;;;1.55;56.16
30744;BME280;17486;46.738;7.622;2023-01-26T03:19:20;95456.03;;;1.51;56.49
30744;BME280;17486;46.738;7.622;2023-01-26T03:22:05;95414.47;;;1.25;56.72
30744;BME280;17486;46.738;7.622;2023-01-26T03:24:49;95454.38;;;1.46;56.36
30744;BME280;17486;46.738;7.622;2023-01-26T03:27:41;95456.06;;;1.47;56.75
30744;BME280;17486;46.738;7.622;2023-01-26T03:30:08;95423.00;;;1.27;56.44
30744;BME280;17486;46.738;7.622;2023-01-26T03:32:34;95462.84;;;1.52;56.41
30744;BME280;17486;46.738;7.622;2023-01-26T03:34:59;95412.75;;;1.26;56.69
30744;BME280;17486;46.738;7.622;2023-01-26T03:37:24;95404.22;;;1.24;56.64
30744;BME280;17486;46.738;7.622;2023-01-26T03:39:50;95405.00;;;1.30;56.62
30744;BME280;17486;46.738;7.622;2023-01-26T03:42:35;95455.16;;;1.52;56.47
30744;BME280;17486;46.738;7.622;2023-01-26T03:45:20;95403.31;;;1.28;56.80
30744;BME280;17486;46.738;7.622;2023-01-26T03:48:06;95450.03;;;1.52;56.51
30744;BME280;17486;46.738;7.622;2023-01-26T03:50:50;95387.16;;;1.23;56.47
30744;BME280;17486;46.738;7.622;2023-01-26T03:53:34;95384.59;;;1.26;56.62
30744;BME280;17486;46.738;7.622;2023-01-26T03:56:18;95425.31;;;1.47;56.63
30744;BME280;17486;46.738;7.622;2023-01-26T03:58:52;95368.47;;;1.14;56.91
30744;BME280;17486;46.738;7.622;2023-01-26T04:01:20;95433.00;;;1.49;56.67
30744;BME280;17486;46.738;7.622;2023-01-26T04:03:49;95393.84;;;1.35;57.01
30744;BME280;17486;46.738;7.622;2023-01-26T04:06:34;95383.66;;;1.28;56.33
30744;BME280;17486;46.738;7.622;2023-01-26T04:09:19;95405.75;;;1.42;56.63
30744;BME280;17486;46.738;7.622;2023-01-26T04:11:45;95364.97;;;1.22;56.43
30744;BME280;17486;46.738;7.622;2023-01-26T04:14:11;95373.50;;;1.24;56.53
30744;BME280;17486;46.738;7.622;2023-01-26T04:16:57;95408.25;;;1.46;56.72
30744;BME280;17486;46.738;7.622;2023-01-26T04:19:41;95369.22;;;1.26;56.93
30744;BME280;17486;46.738;7.622;2023-01-26T04:22:25;95401.47;;;1.42;57.00
30744;BME280;17486;46.738;7.622;2023-01-26T04:24:51;95364.09;;;1.23;56.83
30744;BME280;17486;46.738;7.622;2023-01-26T04:27:16;95406.53;;;1.47;56.66
30744;BME280;17486;46.738;7.622;2023-01-26T04:29:42;95410.00;;;1.44;56.54
30744;BME280;17486;46.738;7.622;2023-01-26T04:32:07;95405.69;;;1.45;56.16
30744;BME280;17486;46.738;7.622;2023-01-26T04:34:33;95396.34;;;1.42;56.74
30744;BME280;17486;46.738;7.622;2023-01-26T04:36:58;95354.75;;;1.19;56.62
30744;BME280;17486;46.738;7.622;2023-01-26T04:39:23;95353.91;;;1.20;56.42
30744;BME280;17486;46.738;7.622;2023-01-26T04:41:49;95353.03;;;1.21;56.24
30744;BME280;17486;46.738;7.622;2023-01-26T04:44:14;95384.41;;;1.40;56.21
30744;BME280;17486;46.738;7.622;2023-01-26T04:46:41;95399.75;;;1.44;56.53
30744;BME280;17486;46.738;7.622;2023-01-26T04:49:07;95387.81;;;1.39;55.97
30744;BME280;17486;46.738;7.622;2023-01-26T04:51:33;95354.72;;;1.20;56.44
30744;BME280;17486;46.738;7.622;2023-01-26T04:53:58;95398.09;;;1.37;55.75
30744;BME280;17486;46.738;7.622;2023-01-26T04:56:32;95348.78;;;1.16;55.85
30744;BME280;17486;46.738;7.622;2023-01-26T04:58:59;95352.22;;;1.17;55.95
30744;BME280;17486;46.738;7.622;2023-01-26T05:01:25;95398.94;;;1.39;55.71
30744;BME280;17486;46.738;7.622;2023-01-26T05:03:51;95386.16;;;1.38;55.80
30744;BME280;17486;46.738;7.622;2023-01-26T05:06:17;95385.25;;;1.39;55.57
30744;BME280;17486;46.738;7.622;2023-01-26T05:08:42;95374.22;;;1.33;55.79
30744;BME280;17486;46.738;7.622;2023-01-26T05:11:07;95338.63;;;1.10;55.38
30744;BME280;17486;46.738;7.622;2023-01-26T05:13:33;95384.47;;;1.33;55.68
30744;BME280;17486;46.738;7.622;2023-01-26T05:16:00;95375.94;;;1.33;55.56
30744;BME280;17486;46.738;7.622;2023-01-26T05:18:26;95369.97;;;1.31;55.58
30744;BME280;17486;46.738;7.622;2023-01-26T05:20:52;95381.06;;;1.33;55.46
30744;BME280;17486;46.738;7.622;2023-01-26T05:23:17;95355.50;;;1.27;55.68
30744;BME280;17486;46.738;7.622;2023-01-26T05:25:42;95356.34;;;1.30;55.25
30744;BME280;17486;46.738;7.622;2023-01-26T05:28:08;95369.13;;;1.30;55.70
30744;BME280;17486;46.738;7.622;2023-01-26T05:30:33;95375.06;;;1.36;55.84
30744;BME280;17486;46.738;7.622;2023-01-26T05:33:00;95366.50;;;1.37;55.87
30744;BME280;17486;46.738;7.622;2023-01-26T05:35:26;95357.13;;;1.36;55.88
30744;BME280;17486;46.738;7.622;2023-01-26T05:37:51;95355.41;;;1.36;55.81
30744;BME280;17486;46.738;7.622;2023-01-26T05:40:16;95321.56;;;1.09;55.72
30744;BME280;17486;46.738;7.622;2023-01-26T05:42:42;95309.59;;;1.11;55.52
30744;BME280;17486;46.738;7.622;2023-01-26T05:45:08;95360.53;;;1.38;55.68
30744;BME280;17486;46.738;7.622;2023-01-26T05:47:33;95327.50;;;1.14;55.65
30744;BME280;17486;46.738;7.622;2023-01-26T05:49:59;95312.97;;;1.13;55.90
30744;BME280;17486;46.738;7.622;2023-01-26T05:52:24;95360.50;;;1.39;56.09
30744;BME280;17486;46.738;7.622;2023-01-26T05:54:50;95346.91;;;1.34;55.88
30744;BME280;17486;46.738;7.622;2023-01-26T05:57:16;95324.84;;;1.22;55.42
30744;BME280;17486;46.738;7.622;2023-01-26T05:59:41;95350.25;;;1.39;55.96
30744;BME280;17486;46.738;7.622;2023-01-26T06:02:09;95301.09;;;1.09;55.43
30744;BME280;17486;46.738;7.622;2023-01-26T06:04:35;95351.13;;;1.37;55.96
30744;BME280;17486;46.738;7.622;2023-01-26T06:07:00;95346.84;;;1.37;55.71
30744;BME280;17486;46.738;7.622;2023-01-26T06:09:26;95301.91;;;1.13;55.66
30744;BME280;17486;46.738;7.622;2023-01-26T06:11:51;95357.09;;;1.37;55.85
30744;BME280;17486;46.738;7.622;2023-01-26T06:14:17;95348.56;;;1.38;55.33
30744;BME280;17486;46.738;7.622;2023-01-26T06:16:42;95306.13;;;1.15;55.46
30744;BME280;17486;46.738;7.622;2023-01-26T06:19:08;95332.44;;;1.28;55.55
30744;BME280;17486;46.738;7.622;2023-01-26T06:21:34;95316.28;;;1.22;55.99
30744;BME280;17486;46.738;7.622;2023-01-26T06:23:59;95346.91;;;1.34;55.73
30744;BME280;17486;46.738;7.622;2023-01-26T06:26:25;95340.03;;;1.36;55.61
30744;BME280;17486;46.738;7.622;2023-01-26T06:28:51;95345.19;;;1.35;55.50
30744;BME280;17486;46.738;7.622;2023-01-26T06:31:17;95349.44;;;1.36;55.71
30744;BME280;17486;46.738;7.622;2023-01-26T06:33:43;95357.94;;;1.39;55.84
30744;BME280;17486;46.738;7.622;2023-01-26T06:36:11;95315.44;;;1.21;55.89
30744;BME280;17486;46.738;7.622;2023-01-26T06:38:38;95301.03;;;1.12;55.81
30744;BME280;17486;46.738;7.622;2023-01-26T06:41:05;95342.59;;;1.36;55.78
30744;BME280;17486;46.738;7.622;2023-01-26T06:43:32;95309.50;;;1.18;55.95
30744;BME280;17486;46.738;7.622;2023-01-26T06:45:58;95346.84;;;1.40;56.11
30744;BME280;17486;46.738;7.622;2023-01-26T06:48:25;95350.34;;;1.31;55.98
30744;BME280;17486;46.738;7.622;2023-01-26T06:50:51;95353.78;;;1.29;55.94
30744;BME280;17486;46.738;7.622;2023-01-26T06:53:37;95349.50;;;1.29;55.90
30744;BME280;17486;46.738;7.622;2023-01-26T06:56:05;95353.75;;;1.32;55.82
30744;BME280;17486;46.738;7.622;2023-01-26T06:58:31;95309.66;;;1.05;55.88
30744;BME280;17486;46.738;7.622;2023-01-26T07:00:56;95351.22;;;1.30;56.07
30744;BME280;17486;46.738;7.622;2023-01-26T07:03:22;95361.41;;;1.35;55.88
30744;BME280;17486;46.738;7.622;2023-01-26T07:05:47;95348.59;;;1.35;55.77
30744;BME280;17486;46.738;7.622;2023-01-26T07:08:13;95340.97;;;1.30;55.41
30744;BME280;17486;46.738;7.622;2023-01-26T07:10:38;95309.63;;;1.08;55.84
30744;BME280;17486;46.738;7.622;2023-01-26T07:13:04;95357.97;;;1.35;55.81
30744;BME280;17486;46.738;7.622;2023-01-26T07:15:30;95348.59;;;1.35;55.78
30744;BME280;17486;46.738;7.622;2023-01-26T07:17:56;95354.56;;;1.36;55.48
30744;BME280;17486;46.738;7.622;2023-01-26T07:20:22;95328.25;;;1.23;55.71
30744;BME280;17486;46.738;7.622;2023-01-26T07:22:49;95358.84;;;1.33;55.94
30744;BME280;17486;46.738;7.622;2023-01-26T07:25:15;95350.38;;;1.30;55.72
30744;BME280;17486;46.738;7.622;2023-01-26T07:27:40;95356.25;;;1.37;55.88
30744;BME280;17486;46.738;7.622;2023-01-26T07:30:07;95303.59;;;1.12;55.74
30744;BME280;17486;46.738;7.622;2023-01-26T07:32:32;95343.41;;;1.40;55.96
30744;BME280;17486;46.738;7.622;2023-01-26T07:34:57;95345.13;;;1.39;55.85
30744;BME280;17486;46.738;7.622;2023-01-26T07:37:26;95343.38;;;1.41;55.41
30744;BME280;17486;46.738;7.622;2023-01-26T07:39:52;95342.50;;;1.44;55.67
30744;BME280;17486;46.738;7.622;2023-01-26T07:42:17;95351.84;;;1.48;55.19
30744;BME280;17486;46.738;7.622;2023-01-26T07:44:43;95345.00;;;1.48;55.46
30744;BME280;17486;46.738;7.622;2023-01-26T07:47:08;95316.22;;;1.28;55.53
30744;BME280;17486;46.738;7.622;2023-01-26T07:49:33;95343.25;;;1.51;55.24
30744;BME280;17486;46.738;7.622;2023-01-26T07:51:59;95344.09;;;1.53;54.94
30744;BME280;17486;46.738;7.622;2023-01-26T07:54:24;95347.50;;;1.53;55.21
30744;BME280;17486;46.738;7.622;2023-01-26T07:56:51;95332.19;;;1.50;54.97
30744;BME280;17486;46.738;7.622;2023-01-26T07:59:17;95334.69;;;1.55;54.93
30744;BME280;17486;46.738;7.622;2023-01-26T08:01:43;95291.44;;;1.30;54.92
30744;BME280;17486;46.738;7.622;2023-01-26T08:04:08;95300.84;;;1.28;55.11
30744;BME280;17486;46.738;7.622;2023-01-26T08:06:34;95332.19;;;1.50;55.02
30744;BME280;17486;46.738;7.622;2023-01-26T08:08:59;95335.56;;;1.52;55.11
30744;BME280;17486;46.738;7.622;2023-01-26T08:11:24;95327.84;;;1.55;54.72
30744;BME280;17486;46.738;7.622;2023-01-26T08:13:51;95296.50;;;1.33;55.07
30744;BME280;17486;46.738;7.622;2023-01-26T08:16:16;95286.22;;;1.36;55.12
30744;BME280;17486;46.738;7.622;2023-01-26T08:18:44;95340.59;;;1.61;54.96
30744;BME280;17486;46.738;7.622;2023-01-26T08:21:11;95321.00;;;1.57;54.91
30744;BME280;17486;46.738;7.622;2023-01-26T08:23:37;95289.63;;;1.38;54.59
30744;BME280;17486;46.738;7.622;2023-01-26T08:26:08;95308.25;;;1.51;54.92
30744;BME280;17486;46.738;7.622;2023-01-26T08:28:34;95298.06;;;1.45;54.54
30744;BME280;17486;46.738;7.622;2023-01-26T08:31:05;95302.38;;;1.44;54.91
30744;BME280;17486;46.738;7.622;2023-01-26T08:33:32;95319.22;;;1.61;54.56
30744;BME280;17486;46.738;7.622;2023-01-26T08:36:06;95336.22;;;1.68;54.73
30744;BME280;17486;46.738;7.622;2023-01-26T08:38:33;95300.53;;;1.53;54.41
30744;BME280;17486;46.738;7.622;2023-01-26T08:40:59;95299.72;;;1.49;54.29
30744;BME280;17486;46.738;7.622;2023-01-26T08:43:25;95336.16;;;1.74;54.31
30744;BME280;17486;46.738;7.622;2023-01-26T08:45:51;95303.88;;;1.58;54.42
30744;BME280;17486;46.738;7.622;2023-01-26T08:48:16;95312.34;;;1.63;54.23
30744;BME280;17486;46.738;7.622;2023-01-26T08:50:42;95332.72;;;1.74;54.16
30744;BME280;17486;46.738;7.622;2023-01-26T08:53:08;95337.81;;;1.75;54.09
30744;BME280;17486;46.738;7.622;2023-01-26T08:55:34;95300.59;;;1.49;53.86
30744;BME280;17486;46.738;7.622;2023-01-26T08:58:00;95326.84;;;1.65;54.18
30744;BME280;17486;46.738;7.622;2023-01-26T09:00:25;95329.41;;;1.65;54.29
30744;BME280;17486;46.738;7.622;2023-01-26T09:02:58;95330.22;;;1.69;53.92
30744;BME280;17486;46.738;7.622;2023-01-26T09:05:24;95304.78;;;1.55;54.05
30744;BME280;17486;46.738;7.622;2023-01-26T09:07:49;95294.56;;;1.54;53.78
30744;BME280;17486;46.738;7.622;2023-01-26T09:10:15;95309.00;;;1.58;53.90
30744;BME280;17486;46.738;7.622;2023-01-26T09:12:40;95353.91;;;1.87;53.66
30744;BME280;17486;46.738;7.622;2023-01-26T09:15:06;95320.84;;;1.68;53.69
30744;BME280;17486;46.738;7.622;2023-01-26T09:17:32;95339.47;;;1.81;54.07
30744;BME280;17486;46.738;7.622;2023-01-26T09:19:57;95348.06;;;1.78;53.74
30744;BME280;17486;46.738;7.622;2023-01-26T09:22:22;95301.38;;;1.55;53.95
30744;BME280;17486;46.738;7.622;2023-01-26T09:24:48;95348.88;;;1.79;54.15
30744;BME280;17486;46.738;7.622;2023-01-26T09:27:13;95311.41;;;1.69;55.15
30744;BME280;17486;46.738;7.622;2023-01-26T09:29:39;95352.06;;;1.96;54.50
30744;BME280;17486;46.738;7.622;2023-01-26T09:32:04;95346.00;;;2.02;54.33
30744;BME280;17486;46.738;7.622;2023-01-26T09:34:29;95341.72;;;2.03;54.06
30744;BME280;17486;46.738;7.622;2023-01-26T09:36:55;95321.34;;;1.92;53.62
30744;BME280;17486;46.738;7.622;2023-01-26T09:39:21;95345.09;;;2.06;53.90
30744;BME280;17486;46.738;7.622;2023-01-26T09:44:42;95319.69;;;1.89;53.74
30744;BME280;17486;46.738;7.622;2023-01-26T09:47:21;95317.19;;;1.86;53.72
30744;BME280;17486;46.738;7.622;2023-01-26T09:49:53;95351.06;;;2.05;53.89
30744;BME280;17486;46.738;7.622;2023-01-26T09:55:12;95346.81;;;2.06;53.47
30744;BME280;17486;46.738;7.622;2023-01-26T09:58:42;95362.97;;;2.12;53.38
30744;BME280;17486;46.738;7.622;2023-01-26T10:05:48;95319.00;;;1.76;52.61
30744;BME280;17486;46.738;7.622;2023-01-26T10:08:17;95322.44;;;1.75;53.16
30744;BME280;17486;46.738;7.622;2023-01-26T10:10:47;95326.00;;;1.67;52.69
30744;BME280;17486;46.738;7.622;2023-01-26T10:13:14;95349.84;;;1.70;52.89
30744;BME280;17486;46.738;7.622;2023-01-26T10:15:42;95320.25;;;1.47;52.98
30744;BME280;17486;46.738;7.622;2023-01-26T10:18:18;95298.91;;;1.47;53.07
30744;BME280;17486;46.738;7.622;2023-01-26T10:20:49;95344.72;;;1.70;53.03
30744;BME280;17486;46.738;7.622;2023-01-26T10:23:20;95333.69;;;1.63;52.54
30744;BME280;17486;46.738;7.622;2023-01-26T10:25:46;95345.81;;;1.54;52.76
30744;BME280;17486;46.738;7.622;2023-01-26T10:28:26;95334.78;;;1.47;53.94
30744;BME280;17486;46.738;7.622;2023-01-26T10:30:54;95346.66;;;1.54;55.53
30744;BME280;17486;46.738;7.622;2023-01-26T10:35:49;95319.53;;;1.36;54.33
30744;BME280;17486;46.738;7.622;2023-01-26T10:38:38;95343.16;;;1.61;54.25
30744;BME280;17486;46.738;7.622;2023-01-26T10:43:34;95337.72;;;1.83;53.79
30744;BME280;17486;46.738;7.622;2023-01-26T10:46:01;95321.41;;;1.89;53.62
30744;BME280;17486;46.738;7.622;2023-01-26T10:48:27;95340.81;;;2.05;53.66
30744;BME280;17486;46.738;7.622;2023-01-26T10:50:53;95331.34;;;2.10;53.13
30744;BME280;17486;46.738;7.622;2023-01-26T10:53:27;95305.72;;;2.09;53.46
30744;BME280;17486;46.738;7.622;2023-01-26T10:56:03;95287.00;;;2.02;52.87
30744;BME280;17486;46.738;7.622;2023-01-26T10:58:43;95324.97;;;2.33;53.11
30744;BME280;17486;46.738;7.622;2023-01-26T11:01:11;95296.03;;;2.25;52.90
30744;BME280;17486;46.738;7.622;2023-01-26T11:03:40;95324.72;;;2.50;52.43
30744;BME280;17486;46.738;7.622;2023-01-26T11:06:13;95321.25;;;2.54;52.00
30744;BME280;17486;46.738;7.622;2023-01-26T11:08:39;95316.84;;;2.59;52.02
30744;BME280;17486;46.738;7.622;2023-01-26T11:11:05;95300.78;;;2.49;51.68
30744;BME280;17486;46.738;7.622;2023-01-26T11:13:35;95282.09;;;2.41;52.14
30744;BME280;17486;46.738;7.622;2023-01-26T11:19:01;95312.34;;;2.72;51.78
30744;BME280;17486;46.738;7.622;2023-01-26T11:21:28;95328.53;;;2.77;51.77
30744;BME280;17486;46.738;7.622;2023-01-26T11:24:03;95323.31;;;2.82;51.33
30744;BME280;17486;46.738;7.622;2023-01-26T11:26:56;95300.28;;;2.77;51.49
30744;BME280;17486;46.738;7.622;2023-01-26T11:29:44;95284.09;;;2.72;51.21
30744;BME280;17486;46.738;7.622;2023-01-26T11:35:15;95305.28;;;2.85;50.76
30744;BME280;17486;46.738;7.622;2023-01-26T11:37:52;95312.06;;;2.88;50.51
30744;BME280;17486;46.738;7.622;2023-01-26T11:51:41;95302.63;;;2.90;50.00
30744;BME280;17486;46.738;7.622;2023-01-26T11:57:35;95287.25;;;2.87;49.73
30744;BME280;17486;46.738;7.622;2023-01-26T12:00:21;95296.72;;;2.85;49.41
30744;BME280;17486;46.738;7.622;2023-01-26T12:02:58;95289.03;;;2.85;49.51
30744;BME280;17486;46.738;7.622;2023-01-26T12:05:30;95248.34;;;2.61;49.69
30744;BME280;17486;46.738;7.622;2023-01-26T12:08:15;95280.59;;;2.78;49.51
30744;BME280;17486;46.738;7.622;2023-01-26T12:10:48;95242.34;;;2.62;49.80
30744;BME280;17486;46.738;7.622;2023-01-26T12:13:24;95270.22;;;2.82;49.58
30744;BME280;17486;46.738;7.622;2023-01-26T12:15:57;95238.13;;;2.60;49.11
30744;BME280;17486;46.738;7.622;2023-01-26T12:18:31;95273.88;;;2.71;49.41
30744;BME280;17486;46.738;7.622;2023-01-26T12:21:07;95267.94;;;2.67;49.48
30744;BME280;17486;46.738;7.622;2023-01-26T12:26:17;95276.63;;;2.60;49.52
30744;BME280;17486;46.738;7.622;2023-01-26T12:31:27;95259.63;;;2.53;49.89
30744;BME280;17486;46.738;7.622;2023-01-26T12:33:56;95242.84;;;2.36;49.72
30744;BME280;17486;46.738;7.622;2023-01-26T12:41:41;95212.25;;;2.24;49.93
30744;BME280;17486;46.738;7.622;2023-01-26T12:46:52;95251.16;;;2.49;49.66
30744;BME280;17486;46.738;7.622;2023-01-26T12:50:24;95251.19;;;2.46;49.81
30744;BME280;17486;46.738;7.622;2023-01-26T12:52:59;95239.41;;;2.37;49.64
30744;BME280;17486;46.738;7.622;2023-01-26T12:55:29;95241.88;;;2.42;49.88
30744;BME280;17486;46.738;7.622;2023-01-26T12:58:00;95242.69;;;2.42;49.62
30744;BME280;17486;46.738;7.622;2023-01-26T13:00:34;95236.81;;;2.39;49.48
30744;BME280;17486;46.738;7.622;2023-01-26T13:03:14;95241.06;;;2.40;49.61
30744;BME280;17486;46.738;7.622;2023-01-26T13:06:01;95233.50;;;2.30;49.43
30744;BME280;17486;46.738;7.622;2023-01-26T13:11:42;95216.50;;;2.25;49.23
30744;BME280;17486;46.738;7.622;2023-01-26T13:14:30;95230.03;;;2.35;49.33
30744;BME280;17486;46.738;7.622;2023-01-26T13:17:03;95222.44;;;2.28;49.45
30744;BME280;17486;46.738;7.622;2023-01-26T13:22:40;95219.88;;;2.28;49.69
30744;BME280;17486;46.738;7.622;2023-01-26T13:25:31;95212.25;;;2.24;49.27
30744;BME280;17486;46.738;7.622;2023-01-26T13:27:59;95211.47;;;2.19;49.56
30744;BME280;17486;46.738;7.622;2023-01-26T13:32:53;95208.97;;;2.15;50.31
30744;BME280;17486;46.738;7.622;2023-01-26T13:35:21;95195.38;;;2.10;49.88
30744;BME280;17486;46.738;7.622;2023-01-26T13:40:34;95183.41;;;2.09;49.56
30744;BME280;17486;46.738;7.622;2023-01-26T13:48:31;95220.66;;;2.32;49.73
30744;BME280;17486;46.738;7.622;2023-01-26T13:51:00;95221.41;;;2.39;49.81
30744;BME280;17486;46.738;7.622;2023-01-26T13:53:39;95221.50;;;2.32;49.94
30744;BME280;17486;46.738;7.622;2023-01-26T13:56:38;95220.44;;;2.44;49.58
30744;BME280;17486;46.738;7.622;2023-01-26T14:01:32;95192.16;;;2.46;49.39
30744;BME280;17486;46.738;7.622;2023-01-26T14:04:02;95196.50;;;2.44;49.83
30744;BME280;17486;46.738;7.622;2023-01-26T14:06:28;95202.41;;;2.47;49.82
30744;BME280;17486;46.738;7.622;2023-01-26T14:08:56;95219.44;;;2.53;49.78
30744;BME280;17486;46.738;7.622;2023-01-26T14:11:24;95194.66;;;2.51;49.44
30744;BME280;17486;46.738;7.622;2023-01-26T14:13:55;95187.91;;;2.46;49.57
30744;BME280;17486;46.738;7.622;2023-01-26T14:16:28;95176.75;;;2.46;49.46
30744;BME280;17486;46.738;7.622;2023-01-26T14:19:17;95159.00;;;2.35;49.23
30744;BME280;17486;46.738;7.622;2023-01-26T14:21:47;95164.97;;;2.37;49.17
30744;BME280;17486;46.738;7.622;2023-01-26T14:24:12;95176.72;;;2.49;49.19
30744;BME280;17486;46.738;7.622;2023-01-26T14:26:39;95187.75;;;2.53;49.72
30744;BME280;17486;46.738;7.622;2023-01-26T14:29:10;95189.56;;;2.49;49.62
30744;BME280;17486;46.738;7.622;2023-01-26T14:31:36;95171.59;;;2.47;49.56
30744;BME280;17486;46.738;7.622;2023-01-26T14:34:08;95152.28;;;2.28;49.94
30744;BME280;17486;46.738;7.622;2023-01-26T14:36:34;95212.53;;;2.55;49.83